Date,TemperatureHighF,TemperatureAvgF,TemperatureLowF,DewpointHighF,DewpointAvgF,DewpointLowF,HumidityHigh,HumidityAvg,HumidityLow,PressureMaxIn,PressureMinIn,WindSpeedMaxMPH,WindSpeedAvgMPH,GustSpeedMaxMPH,PrecipitationSumIn
2013-2-1,19.0,12.3,5.0,18.0,6.6,-0.4,100,78,65,30.42,29.99,75,19,75,0.00
2013-2-2,31.0,24.4,13.0,30.0,22.6,9.1,100,93,84,30.29,29.96,33,0,33,0.09
2013-2-3,29.0,25.6,21.0,25.9,22.3,17.2,93,87,81,30.10,29.89,0,0,0,0.00
2013-2-4,40.0,28.7,13.0,39.0,25.5,11.4,100,88,66,30.09,29.80,75,8,75,0.14
2013-2-5,48.0,40.2,34.0,40.9,37.1,33.0,100,90,69,29.99,29.81,38,3,38,0.01
2013-2-6,46.0,35.2,26.0,34.9,31.0,25.8,100,85,64,30.23,29.99,75,22,75,0.00
2013-2-7,64.0,46.7,34.0,43.2,36.1,31.1,91,69,43,30.17,29.83,75,17,75,0.00
2013-2-8,48.0,37.7,33.0,46.0,35.0,29.4,100,90,67,30.31,29.81,75,25,75,0.08
2013-2-9,45.0,34.4,25.0,30.7,24.5,21.6,91,69,45,30.40,30.18,75,11,75,0.00
2013-2-10,57.0,44.1,34.0,48.2,33.7,22.0,97,68,40,30.18,29.82,44,20,44,0.06
2013-2-11,53.0,47.7,37.0,53.0,38.5,28.5,100,73,49,30.08,29.80,42,6,42,0.02
2013-2-12,49.0,38.3,27.0,31.7,28.6,23.4,88,69,48,30.14,29.86,75,3,75,0.00
2013-2-13,39.0,34.5,30.0,36.5,31.0,28.2,100,87,69,29.90,29.71,75,13,75,0.03
2013-2-14,54.0,40.2,29.0,42.4,34.6,29.0,100,83,52,29.96,29.82,75,21,75,0.00
2013-2-15,41.0,35.2,26.0,36.9,30.8,22.4,95,84,65,30.12,29.96,75,8,75,0.03
2013-2-16,32.0,24.7,18.0,26.0,18.2,11.2,99,78,51,30.13,29.99,75,8,75,0.00
2013-2-17,34.0,24.1,16.0,16.0,13.1,8.9,90,65,36,30.22,30.07,75,6,75,0.00
2013-2-18,59.0,42.2,25.0,39.1,27.2,12.3,74,56,43,30.17,29.77,45,11,45,0.05
2013-2-19,47.0,35.2,24.0,41.4,28.5,17.5,100,77,54,30.12,29.70,43,25,44,0.26
2013-2-20,32.0,24.8,19.0,18.1,15.2,12.0,79,67,52,30.27,30.12,75,26,75,0.00
2013-2-21,38.0,26.6,17.0,28.2,19.6,12.7,93,76,55,30.31,29.97,75,19,75,0.00
2013-2-22,55.0,40.8,29.0,48.2,38.6,27.2,100,92,73,30.02,29.84,75,14,75,0.38
2013-2-23,47.0,38.1,33.0,39.1,30.3,24.6,96,75,49,29.98,29.86,75,18,75,0.00
2013-2-24,47.0,33.3,23.0,29.4,25.3,21.3,95,74,48,30.10,29.90,75,12,75,0.00
2013-2-25,49.0,36.7,26.0,28.0,25.1,21.8,85,65,43,30.11,29.80,75,7,75,0.00
2013-2-26,53.0,43.8,38.0,52.2,39.9,25.5,99,87,58,29.80,29.34,40,16,40,0.33
2013-2-27,38.0,35.5,31.0,38.0,35.1,31.0,100,99,96,29.74,29.54,37,29,37,0.06
2013-2-28,34.0,32.3,31.0,34.0,31.9,30.0,100,99,96,29.93,29.70,44,30,44,0.02